createdAt,value
2023-11-27T00:00:52.641Z,96.44
2023-11-27T00:02:55.790Z,96.65
2023-11-27T00:04:58.951Z,96.61
2023-11-27T00:07:02.043Z,96.72
2023-11-27T00:09:06.826Z,96.91
2023-11-27T00:11:10.211Z,96.95
2023-11-27T00:13:12.371Z,97.08
2023-11-27T00:15:15.677Z,96.97
2023-11-27T00:17:17.702Z,97.14
2023-11-27T00:19:20.877Z,97.05
2023-11-27T00:21:24.037Z,97.24
2023-11-27T00:23:27.014Z,97.05
2023-11-27T00:25:31.468Z,97.37
2023-11-27T00:27:34.515Z,97.28
2023-11-27T00:29:38.198Z,97.31
2023-11-27T00:31:41.682Z,97.43
2023-11-27T00:33:46.692Z,97.49
2023-11-27T00:35:49.935Z,97.54
2023-11-27T00:37:53.078Z,97.29
2023-11-27T00:39:55.515Z,97.51
2023-11-27T00:41:59.911Z,97.62
2023-11-27T00:44:02.946Z,97.60
2023-11-27T00:46:06.561Z,97.64
2023-11-27T00:48:09.034Z,97.60
2023-11-27T00:50:12.147Z,97.63
2023-11-27T00:52:15.393Z,97.73
2023-11-27T00:54:18.771Z,97.58
2023-11-27T00:56:21.820Z,97.68
2023-11-27T00:58:26.390Z,97.81
2023-11-27T01:00:29.377Z,97.79
2023-11-27T01:02:32.470Z,97.58
2023-11-27T01:04:35.548Z,97.71
2023-11-27T01:06:37.675Z,97.52
2023-11-27T01:08:41.673Z,97.35
2023-11-27T01:10:44.694Z,97.63
2023-11-27T01:12:51.381Z,97.56
2023-11-27T01:14:56.454Z,97.84
2023-11-27T01:16:58.650Z,97.87
2023-11-27T01:19:01.788Z,97.83
2023-11-27T01:21:06.289Z,97.95
2023-11-27T01:23:09.574Z,98.02
2023-11-27T01:25:11.833Z,97.96
2023-11-27T01:27:15.269Z,97.94
2023-11-27T01:29:18.300Z,97.97
2023-11-27T01:31:23.205Z,98.05
2023-11-27T01:33:26.489Z,97.89
2023-11-27T01:35:29.513Z,98.07
2023-11-27T01:37:32.564Z,98.08
2023-11-27T01:39:35.902Z,98.04
2023-11-27T01:41:40.089Z,98.11
2023-11-27T01:43:43.689Z,98.07
2023-11-27T01:45:46.947Z,98.19
2023-11-27T01:47:52.989Z,98.17
2023-11-27T01:49:56.116Z,98.12
2023-11-27T01:52:00.927Z,98.33
2023-11-27T01:54:04.173Z,98.29
2023-11-27T01:56:08.380Z,98.53
2023-11-27T01:58:12.231Z,98.26
2023-11-27T02:00:16.957Z,98.43
2023-11-27T02:02:19.215Z,98.50
2023-11-27T02:04:23.732Z,98.68
2023-11-27T02:06:25.773Z,98.74
2023-11-27T02:08:29.846Z,98.59
2023-11-27T02:10:32.898Z,98.71
2023-11-27T02:12:35.982Z,98.75
2023-11-27T02:14:40.648Z,98.58
2023-11-27T02:16:44.497Z,98.58
2023-11-27T02:18:47.670Z,98.70
2023-11-27T02:20:51.125Z,98.91
2023-11-27T02:22:54.180Z,98.79
2023-11-27T02:24:57.558Z,98.95
2023-11-27T02:27:00.615Z,98.88
2023-11-27T02:29:02.869Z,98.99
2023-11-27T02:31:07.332Z,98.90
2023-11-27T02:33:10.516Z,99.10
2023-11-27T02:35:13.613Z,98.90
2023-11-27T02:37:16.744Z,99.16
2023-11-27T02:39:18.880Z,99.14
2023-11-27T02:45:11.779Z,99.06
2023-11-27T02:47:14.868Z,99.28
2023-11-27T02:49:18.622Z,99.24
2023-11-27T02:51:21.543Z,99.51
2023-11-27T02:53:25.630Z,99.18
2023-11-27T02:55:29.293Z,99.26
2023-11-27T02:57:31.296Z,99.09
2023-11-27T02:59:34.234Z,99.27
2023-11-27T03:01:38.663Z,99.28
2023-11-27T03:03:41.047Z,99.24
2023-11-27T03:05:43.997Z,99.16
2023-11-27T03:07:47.629Z,99.12
2023-11-27T03:09:50.641Z,99.33
2023-11-27T03:11:53.660Z,99.42
2023-11-27T03:13:56.869Z,99.26
2023-11-27T03:15:59.940Z,99.34
2023-11-27T03:18:04.478Z,99.34
2023-11-27T03:20:09.689Z,99.25
2023-11-27T03:22:12.707Z,99.54
2023-11-27T03:24:16.087Z,99.43
2023-11-27T03:26:20.773Z,99.32
2023-11-27T03:28:23.787Z,99.47
2023-11-27T03:30:26.957Z,99.20
2023-11-27T03:32:30.839Z,99.33
2023-11-27T03:34:35.104Z,99.20
2023-11-27T03:36:38.073Z,99.45
2023-11-27T03:38:40.142Z,99.38
2023-11-27T03:40:43.135Z,99.32
2023-11-27T03:42:46.220Z,99.40
2023-11-27T03:44:49.183Z,99.37
2023-11-27T03:46:52.248Z,99.38
2023-11-27T03:48:55.229Z,99.24
2023-11-27T03:50:59.541Z,99.53
2023-11-27T03:53:02.678Z,99.50
2023-11-27T03:55:06.678Z,99.41
2023-11-27T03:57:09.747Z,99.46
2023-11-27T03:59:12.660Z,99.48
2023-11-27T04:01:16.299Z,99.43
2023-11-27T04:03:19.315Z,99.52
2023-11-27T04:05:22.337Z,99.62
2023-11-27T04:07:26.744Z,99.55
2023-11-27T04:09:29.777Z,99.56
2023-11-27T04:11:32.838Z,99.55
2023-11-27T04:13:35.796Z,99.51
2023-11-27T04:15:39.760Z,99.76
2023-11-27T04:17:41.752Z,99.74
2023-11-27T04:19:44.820Z,99.93
2023-11-27T04:21:46.909Z,99.76
2023-11-27T04:23:51.802Z,99.87
2023-11-27T04:25:54.815Z,99.92
2023-11-27T04:27:57.579Z,100.00
2023-11-27T04:30:00.821Z,100.00
2023-11-27T04:32:04.102Z,100.00
2023-11-27T04:34:07.330Z,100.00
2023-11-27T04:36:10.464Z,99.97
2023-11-27T04:38:13.497Z,100.00
2023-11-27T04:40:17.036Z,100.00
2023-11-27T04:42:20.105Z,99.97
2023-11-27T04:44:24.933Z,100.00
2023-11-27T04:46:28.136Z,100.00
2023-11-27T04:48:31.270Z,100.00
2023-11-27T04:50:33.349Z,100.00
2023-11-27T04:52:36.386Z,100.00
2023-11-27T04:54:39.825Z,99.96
2023-11-27T04:56:43.288Z,100.00
2023-11-27T04:58:46.793Z,100.00
2023-11-27T05:00:49.893Z,100.00
2023-11-27T05:02:53.371Z,100.00
2023-11-27T05:04:55.624Z,100.00
2023-11-27T05:06:58.737Z,100.00
2023-11-27T05:09:00.809Z,100.00
2023-11-27T05:11:04.104Z,100.00
2023-11-27T05:13:08.615Z,100.00
2023-11-27T05:15:12.492Z,100.00
2023-11-27T05:17:15.807Z,100.00
2023-11-27T05:19:19.621Z,100.00
2023-11-27T05:21:22.734Z,100.00
2023-11-27T05:23:25.868Z,100.00
2023-11-27T05:25:28.987Z,100.00
2023-11-27T05:27:32.037Z,100.00
2023-11-27T05:29:36.485Z,100.00
2023-11-27T05:31:38.877Z,100.00
2023-11-27T05:33:42.025Z,100.00
2023-11-27T05:35:45.363Z,100.00
2023-11-27T05:37:47.446Z,100.00
2023-11-27T05:39:50.640Z,100.00
2023-11-27T05:41:54.148Z,100.00
2023-11-27T05:43:57.891Z,100.00
2023-11-27T05:46:02.748Z,100.00
2023-11-27T05:48:07.168Z,100.00
2023-11-27T05:50:13.507Z,100.00
2023-11-27T05:52:16.945Z,100.00
2023-11-27T05:54:20.105Z,100.00
2023-11-27T05:56:23.097Z,100.00
2023-11-27T05:58:26.178Z,100.00
2023-11-27T06:00:29.247Z,100.00
2023-11-27T06:02:33.908Z,100.00
2023-11-27T06:04:37.086Z,100.00
2023-11-27T06:06:40.223Z,100.00
2023-11-27T06:08:44.638Z,100.00
2023-11-27T06:10:47.910Z,100.00
2023-11-27T06:12:51.633Z,100.00
2023-11-27T06:14:55.382Z,100.00
2023-11-27T06:16:59.547Z,100.00
2023-11-27T06:19:06.275Z,100.00
2023-11-27T06:21:12.069Z,100.00
2023-11-27T06:23:14.094Z,100.00
2023-11-27T06:25:17.182Z,100.00
2023-11-27T06:27:20.374Z,100.00
2023-11-27T06:29:23.464Z,100.00
2023-11-27T06:31:26.729Z,100.00
2023-11-27T06:33:29.951Z,100.00
2023-11-27T06:35:35.316Z,100.00
2023-11-27T06:37:38.459Z,100.00
2023-11-27T06:39:41.463Z,100.00
2023-11-27T06:41:44.514Z,100.00
2023-11-27T06:43:47.819Z,100.00
2023-11-27T06:45:52.952Z,100.00
2023-11-27T06:47:56.036Z,100.00
2023-11-27T06:50:04.310Z,100.00
2023-11-27T06:52:09.139Z,100.00
2023-11-27T06:54:12.234Z,100.00
2023-11-27T06:56:15.956Z,100.00
2023-11-27T06:58:19.069Z,100.00
2023-11-27T07:00:22.280Z,100.00
2023-11-27T07:02:27.252Z,100.00
2023-11-27T07:04:30.427Z,100.00
2023-11-27T07:06:36.212Z,100.00
2023-11-27T07:08:40.721Z,100.00
2023-11-27T07:10:43.845Z,100.00
2023-11-27T07:12:46.887Z,100.00
2023-11-27T07:14:49.717Z,100.00
2023-11-27T07:16:52.971Z,100.00
2023-11-27T07:18:58.347Z,100.00
2023-11-27T07:21:01.641Z,100.00
2023-11-27T07:23:05.108Z,100.00
2023-11-27T07:25:10.297Z,100.00
2023-11-27T07:27:13.437Z,100.00
2023-11-27T07:29:16.529Z,100.00
2023-11-27T07:31:19.697Z,100.00
2023-11-27T07:33:23.885Z,100.00
2023-11-27T07:35:27.020Z,100.00
2023-11-27T07:37:30.160Z,100.00
2023-11-27T07:39:33.480Z,100.00
2023-11-27T07:41:38.239Z,100.00
2023-11-27T07:43:46.964Z,100.00
2023-11-27T07:45:49.260Z,100.00
2023-11-27T07:47:53.516Z,100.00
2023-11-27T07:49:56.864Z,100.00
2023-11-27T07:52:00.411Z,100.00
2023-11-27T07:54:03.691Z,100.00
2023-11-27T07:56:08.285Z,100.00
2023-11-27T07:58:15.841Z,100.00
2023-11-27T08:00:20.844Z,100.00
2023-11-27T08:02:23.937Z,100.00
2023-11-27T08:04:27.079Z,100.00
2023-11-27T08:06:30.518Z,100.00
2023-11-27T08:08:33.783Z,100.00
2023-11-27T08:10:37.356Z,100.00
2023-11-27T08:12:39.476Z,100.00
2023-11-27T08:14:43.935Z,100.00
2023-11-27T08:16:48.801Z,100.00
2023-11-27T08:18:51.062Z,100.00
2023-11-27T08:20:54.339Z,100.00
2023-11-27T08:22:59.261Z,100.00
2023-11-27T08:25:02.690Z,100.00
2023-11-27T08:27:06.338Z,100.00
2023-11-27T08:29:09.943Z,100.00
2023-11-27T08:31:20.380Z,100.00
2023-11-27T08:33:23.532Z,100.00
2023-11-27T08:35:25.592Z,100.00
2023-11-27T08:37:28.846Z,100.00
2023-11-27T08:39:31.983Z,100.00
2023-11-27T08:41:36.729Z,100.00
2023-11-27T08:43:41.843Z,100.00
2023-11-27T08:45:45.053Z,100.00
2023-11-27T08:47:53.263Z,100.00
2023-11-27T08:49:57.009Z,100.00
2023-11-27T08:52:00.888Z,100.00
2023-11-27T08:54:04.392Z,100.00
2023-11-27T08:56:08.490Z,100.00
2023-11-27T08:58:11.731Z,100.00
2023-11-27T09:00:15.581Z,100.00
2023-11-27T09:02:18.747Z,100.00
2023-11-27T09:04:23.726Z,100.00
2023-11-27T09:06:29.570Z,100.00
2023-11-27T09:08:32.689Z,100.00
2023-11-27T09:10:36.559Z,100.00
2023-11-27T09:12:39.980Z,100.00
2023-11-27T09:14:44.122Z,100.00
2023-11-27T09:16:47.697Z,100.00
2023-11-27T09:18:50.955Z,100.00
2023-11-27T09:20:55.674Z,100.00
2023-11-27T09:22:59.249Z,100.00
2023-11-27T09:25:01.522Z,100.00
2023-11-27T09:27:05.898Z,99.92
2023-11-27T09:29:10.518Z,100.00
2023-11-27T09:31:13.681Z,99.97
2023-11-27T09:33:17.070Z,99.86
2023-11-27T09:35:21.124Z,99.73
2023-11-27T09:37:25.708Z,99.64
2023-11-27T09:39:29.167Z,99.63
2023-11-27T09:41:31.683Z,99.57
2023-11-27T09:43:34.700Z,99.51
2023-11-27T09:45:38.474Z,99.48
2023-11-27T09:47:44.810Z,99.67
2023-11-27T09:49:50.322Z,99.48
2023-11-27T09:51:58.559Z,99.62
2023-11-27T09:54:06.159Z,99.46
2023-11-27T09:56:11.280Z,99.70
2023-11-27T09:58:15.020Z,99.51
2023-11-27T10:00:20.213Z,99.55
2023-11-27T10:02:23.531Z,99.35
2023-11-27T10:04:26.829Z,99.32
2023-11-27T10:06:34.965Z,99.43
2023-11-27T10:08:38.067Z,99.28
2023-11-27T10:10:45.567Z,99.32
2023-11-27T10:12:48.913Z,99.09
2023-11-27T10:14:55.835Z,99.11
2023-11-27T10:17:02.282Z,99.07
2023-11-27T10:19:07.906Z,98.93
2023-11-27T10:21:11.128Z,99.00
2023-11-27T10:23:15.108Z,98.88
2023-11-27T10:25:18.440Z,98.73
2023-11-27T10:27:26.177Z,98.56
2023-11-27T10:29:29.229Z,98.37
2023-11-27T10:31:32.397Z,98.39
2023-11-27T10:33:35.520Z,98.21
2023-11-27T10:35:39.006Z,98.45
2023-11-27T10:37:42.644Z,98.21
2023-11-27T10:39:49.909Z,98.13
2023-11-27T10:41:57.092Z,97.92
2023-11-27T10:44:01.949Z,97.93
2023-11-27T10:46:09.682Z,97.69
2023-11-27T10:48:15.160Z,97.89
2023-11-27T10:50:20.650Z,98.08
2023-11-27T10:52:24.165Z,97.81
2023-11-27T10:54:31.909Z,97.92
2023-11-27T10:56:36.462Z,97.99
2023-11-27T10:58:40.241Z,97.96
2023-11-27T11:00:56.567Z,97.74
2023-11-27T11:03:07.832Z,97.88
2023-11-27T11:05:16.274Z,97.69
2023-11-27T11:07:23.403Z,97.74
2023-11-27T11:09:27.575Z,97.83
2023-11-27T11:11:31.841Z,97.70
2023-11-27T11:13:36.990Z,97.58
2023-11-27T11:15:51.714Z,97.58
2023-11-27T11:18:01.318Z,97.67
2023-11-27T11:20:15.773Z,97.82
2023-11-27T11:22:31.734Z,97.73
2023-11-27T11:24:45.725Z,97.67
2023-11-27T11:27:02.401Z,97.86
2023-11-27T11:29:14.131Z,97.77
2023-11-27T11:31:18.345Z,97.70
2023-11-27T11:33:21.499Z,97.97
2023-11-27T11:35:24.593Z,97.85
2023-11-27T11:37:26.966Z,97.63
2023-11-27T11:39:30.592Z,97.90
2023-11-27T11:41:34.358Z,97.86
2023-11-27T11:43:43.578Z,97.74
2023-11-27T11:45:47.509Z,97.86
2023-11-27T11:47:58.699Z,97.84
2023-11-27T11:50:26.282Z,98.09
2023-11-27T11:52:32.268Z,97.99
2023-11-27T11:54:39.524Z,98.26
2023-11-27T11:56:42.601Z,97.96
2023-11-27T11:58:44.915Z,98.15
2023-11-27T12:00:48.782Z,98.17
2023-11-27T12:02:55.906Z,97.94
2023-11-27T12:04:59.054Z,98.00
2023-11-27T12:07:02.263Z,97.89
2023-11-27T12:09:05.425Z,97.93
2023-11-27T12:11:09.209Z,97.67
2023-11-27T12:13:12.661Z,97.76
2023-11-27T12:15:14.814Z,97.72
2023-11-27T12:17:21.552Z,97.54
2023-11-27T12:19:27.056Z,97.39
2023-11-27T12:21:29.590Z,97.47
2023-11-27T12:23:33.238Z,97.62
2023-11-27T12:25:37.721Z,97.48
2023-11-27T12:27:40.783Z,97.45
2023-11-27T12:29:50.361Z,97.61
2023-11-27T12:31:54.677Z,97.50
2023-11-27T12:33:58.549Z,97.33
2023-11-27T12:36:06.181Z,97.39
2023-11-27T12:38:12.682Z,97.54
2023-11-27T12:40:21.666Z,97.59
2023-11-27T12:42:24.879Z,97.60
2023-11-27T12:44:30.551Z,97.54
2023-11-27T12:46:33.802Z,97.54
2023-11-27T12:48:36.935Z,97.82
2023-11-27T12:50:40.787Z,97.53
2023-11-27T12:52:47.503Z,97.37
2023-11-27T12:54:56.589Z,97.61
2023-11-27T12:57:01.723Z,97.61
2023-11-27T12:59:04.982Z,97.64
2023-11-27T13:01:08.250Z,97.49
2023-11-27T13:03:14.361Z,97.67
2023-11-27T13:05:22.991Z,97.71
2023-11-27T13:07:26.952Z,97.76
2023-11-27T13:09:30.430Z,97.58
2023-11-27T13:11:33.978Z,97.68
2023-11-27T13:13:37.192Z,97.78
2023-11-27T13:15:40.798Z,97.61
2023-11-27T13:17:43.904Z,97.78
2023-11-27T13:19:50.727Z,97.61
2023-11-27T13:21:56.604Z,97.70
2023-11-27T13:24:00.499Z,97.97
2023-11-27T13:26:18.419Z,97.86
2023-11-27T13:28:22.007Z,97.93
2023-11-27T13:30:29.267Z,97.67
2023-11-27T13:32:32.380Z,97.75
2023-11-27T13:34:35.070Z,97.89
2023-11-27T13:36:43.644Z,97.76
2023-11-27T13:38:46.372Z,97.89
2023-11-27T13:40:56.360Z,97.66
2023-11-27T13:43:01.418Z,97.84
2023-11-27T13:45:10.209Z,97.76
2023-11-27T13:47:18.548Z,97.71
2023-11-27T13:49:26.724Z,97.81
2023-11-27T13:51:32.497Z,97.90
2023-11-27T13:53:35.651Z,97.74
2023-11-27T13:55:37.765Z,97.54
2023-11-27T13:57:42.561Z,97.67
2023-11-27T13:59:45.977Z,97.51
2023-11-27T14:01:55.985Z,97.56
2023-11-27T14:04:19.364Z,97.61
2023-11-27T14:06:24.896Z,97.74
2023-11-27T14:08:40.672Z,97.77
2023-11-27T14:10:56.084Z,97.81
2023-11-27T14:13:02.938Z,97.73
2023-11-27T14:15:10.103Z,97.91
2023-11-27T14:17:21.133Z,97.93
2023-11-27T14:19:42.032Z,97.89
2023-11-27T14:22:07.956Z,97.71
2023-11-27T14:24:15.829Z,97.74
2023-11-27T14:26:35.782Z,97.78
2023-11-27T14:28:59.054Z,97.86
2023-11-27T14:31:09.910Z,97.70
2023-11-27T14:33:12.796Z,97.86
2023-11-27T14:35:16.731Z,97.70
2023-11-27T14:37:21.222Z,97.88
2023-11-27T14:39:27.445Z,97.93
2023-11-27T14:41:31.214Z,97.98
2023-11-27T14:43:34.382Z,98.01
2023-11-27T14:45:43.631Z,98.00
2023-11-27T14:47:48.269Z,97.94
2023-11-27T14:49:55.812Z,98.13
2023-11-27T14:52:05.796Z,97.88
2023-11-27T14:54:11.015Z,97.88
2023-11-27T14:56:15.104Z,98.05
2023-11-27T14:58:18.952Z,98.06
2023-11-27T15:00:28.808Z,97.80
2023-11-27T15:02:32.976Z,97.94
2023-11-27T15:04:39.867Z,98.09
2023-11-27T15:06:43.316Z,97.94
2023-11-27T15:08:48.993Z,98.23
2023-11-27T15:10:52.663Z,98.03
2023-11-27T15:12:56.801Z,98.08
2023-11-27T15:14:58.912Z,98.41
2023-11-27T15:17:02.025Z,98.19
2023-11-27T15:19:04.554Z,98.08
2023-11-27T15:21:11.018Z,98.02
2023-11-27T15:23:14.250Z,98.30
2023-11-27T15:25:23.429Z,98.24
2023-11-27T15:27:27.639Z,98.18
2023-11-27T15:29:33.146Z,98.25
2023-11-27T15:31:37.270Z,98.56
2023-11-27T15:33:40.359Z,98.54
2023-11-27T15:35:46.470Z,98.39
2023-11-27T15:37:52.369Z,98.51
2023-11-27T15:39:55.423Z,98.31
2023-11-27T15:41:58.682Z,98.57
2023-11-27T15:44:01.715Z,98.30
2023-11-27T15:46:09.130Z,98.59
2023-11-27T15:48:13.971Z,98.56
2023-11-27T15:50:17.245Z,98.50
2023-11-27T15:52:20.297Z,98.39
2023-11-27T15:54:24.675Z,98.52
2023-11-27T15:56:27.683Z,98.42
2023-11-27T15:58:31.003Z,98.30
2023-11-27T16:00:34.496Z,98.25
2023-11-27T16:02:38.648Z,98.27
2023-11-27T16:04:42.500Z,98.29
2023-11-27T16:06:45.580Z,98.07
2023-11-27T16:08:47.867Z,97.98
2023-11-27T16:10:52.249Z,97.80
2023-11-27T16:12:55.328Z,97.87
2023-11-27T16:14:57.392Z,97.84
2023-11-27T16:17:00.407Z,97.72
2023-11-27T16:19:03.448Z,97.67
2023-11-27T16:21:07.017Z,97.54
2023-11-27T16:23:12.370Z,97.50
2023-11-27T16:25:17.561Z,97.47
2023-11-27T16:27:22.834Z,97.27
2023-11-27T16:29:27.027Z,97.49
2023-11-27T16:31:30.300Z,97.57
2023-11-27T16:33:34.294Z,97.27
2023-11-27T16:35:40.081Z,97.54
2023-11-27T16:37:45.172Z,97.41
2023-11-27T16:39:49.035Z,97.14
2023-11-27T16:41:52.093Z,96.98
2023-11-27T16:43:58.556Z,97.13
2023-11-27T16:46:01.624Z,97.24
2023-11-27T16:48:07.633Z,97.21
2023-11-27T16:50:15.605Z,97.19
2023-11-27T16:52:18.945Z,97.06
2023-11-27T16:54:23.090Z,96.99
2023-11-27T16:56:26.975Z,97.07
2023-11-27T16:58:32.715Z,96.85
2023-11-27T17:00:38.189Z,96.96
2023-11-27T17:02:41.850Z,96.88
2023-11-27T17:04:45.850Z,96.95
2023-11-27T17:06:51.190Z,96.80
2023-11-27T17:08:56.103Z,96.82
2023-11-27T17:10:59.761Z,96.97
2023-11-27T17:13:03.311Z,96.85
2023-11-27T17:15:08.586Z,96.68
2023-11-27T17:17:13.335Z,96.92
2023-11-27T17:19:17.792Z,96.71
2023-11-27T17:21:21.659Z,96.91
2023-11-27T17:23:24.744Z,96.73
2023-11-27T17:25:27.309Z,96.77
2023-11-27T17:27:31.854Z,96.82
2023-11-27T17:29:35.069Z,96.67
2023-11-27T17:31:38.198Z,96.76
2023-11-27T17:33:42.629Z,96.81
2023-11-27T17:35:45.958Z,96.65
2023-11-27T17:37:50.736Z,96.46
2023-11-27T17:39:53.996Z,96.57
2023-11-27T17:41:57.641Z,96.45
2023-11-27T17:44:01.624Z,96.53
2023-11-27T17:46:05.154Z,96.28
2023-11-27T17:48:09.024Z,96.29
2023-11-27T17:50:17.212Z,96.34
2023-11-27T17:52:20.755Z,96.31
2023-11-27T17:54:24.191Z,96.36
2023-11-27T17:56:32.072Z,96.45
2023-11-27T17:58:40.326Z,96.44
2023-11-27T18:00:48.090Z,96.39
2023-11-27T18:02:53.004Z,96.44
2023-11-27T18:04:56.185Z,96.25
2023-11-27T18:07:00.987Z,96.39
2023-11-27T18:09:04.793Z,96.37
2023-11-27T18:11:11.553Z,96.18
2023-11-27T18:13:14.737Z,96.13
2023-11-27T18:15:19.420Z,96.27
2023-11-27T18:17:21.578Z,96.46
2023-11-27T18:19:24.751Z,96.40
2023-11-27T18:21:27.935Z,96.61
2023-11-27T18:23:33.992Z,96.54
2023-11-27T18:25:37.324Z,96.56
2023-11-27T18:27:40.510Z,96.45
2023-11-27T18:29:43.950Z,96.57
2023-11-27T18:31:48.593Z,96.65
2023-11-27T18:33:52.465Z,96.60
2023-11-27T18:35:56.201Z,96.54
2023-11-27T18:37:59.307Z,96.47
2023-11-27T18:40:05.512Z,96.45
2023-11-27T18:42:08.569Z,96.27
2023-11-27T18:44:12.462Z,96.42
2023-11-27T18:46:18.607Z,96.41
2023-11-27T18:48:22.381Z,96.42
2023-11-27T18:50:25.832Z,96.32
2023-11-27T18:52:29.211Z,96.30
2023-11-27T18:54:32.283Z,96.29
2023-11-27T18:56:36.856Z,96.21
2023-11-27T18:58:40.081Z,95.88
2023-11-27T19:00:43.429Z,95.93
2023-11-27T19:02:45.844Z,95.97
2023-11-27T19:04:49.293Z,95.88
2023-11-27T19:06:52.570Z,95.83
2023-11-27T19:08:55.732Z,95.77
2023-11-27T19:10:59.654Z,95.69
2023-11-27T19:13:09.184Z,95.64
2023-11-27T19:15:12.470Z,95.64
2023-11-27T19:17:15.895Z,95.54
2023-11-27T19:19:19.808Z,95.46
2023-11-27T19:21:25.227Z,95.39
2023-11-27T19:23:29.279Z,95.23
2023-11-27T19:25:32.291Z,95.14
2023-11-27T19:27:38.892Z,94.93
2023-11-27T19:29:43.809Z,94.73
2023-11-27T19:31:47.271Z,94.63
2023-11-27T19:33:50.311Z,94.49
2023-11-27T19:35:53.314Z,94.30
2023-11-27T19:37:56.624Z,94.27
2023-11-27T19:40:00.841Z,94.09
2023-11-27T19:42:03.179Z,94.02
2023-11-27T19:44:06.402Z,93.67
2023-11-27T19:46:12.217Z,93.67
2023-11-27T19:48:15.554Z,93.53
2023-11-27T19:50:18.952Z,93.37
2023-11-27T19:52:22.248Z,93.30
2023-11-27T19:54:25.852Z,93.01
2023-11-27T19:56:29.066Z,92.81
2023-11-27T19:58:32.150Z,92.58
2023-11-27T20:00:35.352Z,92.58
2023-11-27T20:02:39.933Z,92.13
2023-11-27T20:04:43.185Z,91.47
2023-11-27T20:06:46.375Z,91.42
2023-11-27T20:08:48.540Z,91.28
2023-11-27T20:10:51.919Z,90.90
2023-11-27T20:12:54.516Z,90.64
2023-11-27T20:14:57.524Z,90.38
2023-11-27T20:17:00.842Z,89.91
2023-11-27T20:19:06.597Z,89.60
2023-11-27T20:21:09.760Z,89.23
2023-11-27T20:23:13.215Z,89.11
2023-11-27T20:25:16.722Z,88.90
2023-11-27T20:27:20.272Z,88.45
2023-11-27T20:29:23.542Z,88.26
2023-11-27T20:31:33.989Z,88.12
2023-11-27T20:33:42.884Z,87.94
2023-11-27T20:35:48.074Z,87.60
2023-11-27T20:37:51.757Z,87.30
2023-11-27T20:39:55.033Z,87.08
2023-11-27T20:41:58.125Z,86.97
2023-11-27T20:44:01.244Z,87.01
2023-11-27T20:46:06.380Z,86.79
2023-11-27T20:48:08.534Z,86.64
2023-11-27T20:50:12.580Z,86.63
2023-11-27T20:52:17.571Z,86.52
2023-11-27T20:54:20.818Z,86.30
2023-11-27T20:56:22.853Z,86.41
2023-11-27T20:58:26.169Z,86.16
2023-11-27T21:00:29.394Z,86.06
2023-11-27T21:02:32.604Z,85.84
2023-11-27T21:04:38.344Z,85.87
2023-11-27T21:06:41.467Z,85.75
2023-11-27T21:08:46.167Z,85.87
2023-11-27T21:10:49.146Z,85.78
2023-11-27T21:12:52.176Z,85.60
2023-11-27T21:14:55.181Z,85.50
2023-11-27T21:16:58.964Z,85.54
2023-11-27T21:19:04.249Z,85.45
2023-11-27T21:21:07.499Z,85.53
2023-11-27T21:23:10.202Z,85.35
2023-11-27T21:25:17.807Z,85.33
2023-11-27T21:27:20.257Z,85.14
2023-11-27T21:29:24.333Z,85.05
2023-11-27T21:31:27.691Z,85.07
2023-11-27T21:33:29.772Z,85.01
2023-11-27T21:35:32.778Z,85.06
2023-11-27T21:37:35.797Z,85.11
2023-11-27T21:39:38.995Z,85.05
2023-11-27T21:41:42.397Z,85.16
2023-11-27T21:43:45.393Z,85.15
2023-11-27T21:45:49.027Z,85.11
2023-11-27T21:47:52.265Z,84.85
2023-11-27T21:49:55.967Z,84.54
2023-11-27T21:51:59.108Z,84.75
2023-11-27T21:54:02.444Z,84.60
2023-11-27T21:56:07.470Z,84.67
2023-11-27T21:58:11.877Z,84.80
2023-11-27T22:00:15.077Z,84.75
2023-11-27T22:02:19.859Z,84.63
2023-11-27T22:04:23.010Z,84.85
2023-11-27T22:06:26.103Z,84.75
2023-11-27T22:08:29.118Z,84.47
2023-11-27T22:10:33.826Z,84.32
2023-11-27T22:12:38.208Z,84.29
2023-11-27T22:14:42.712Z,84.11
2023-11-27T22:16:46.130Z,84.09
2023-11-27T22:18:49.152Z,84.08
2023-11-27T22:20:51.156Z,83.94
2023-11-27T22:22:55.444Z,83.98
2023-11-27T22:24:58.757Z,84.11
2023-11-27T22:27:01.788Z,83.92
2023-11-27T22:29:04.805Z,83.96
2023-11-27T22:31:19.227Z,83.99
2023-11-27T22:33:22.286Z,83.77
2023-11-27T22:35:25.316Z,83.63
2023-11-27T22:37:28.476Z,83.62
2023-11-27T22:39:31.513Z,83.49
2023-11-27T22:41:34.505Z,83.67
2023-11-27T22:43:37.537Z,83.68
2023-11-27T22:45:40.903Z,83.71
2023-11-27T22:47:45.388Z,83.44
2023-11-27T22:49:48.530Z,83.52
2023-11-27T22:51:51.522Z,83.44
2023-11-27T22:53:54.523Z,83.49
2023-11-27T22:55:58.134Z,83.48
2023-11-27T22:58:00.150Z,83.52
2023-11-27T23:00:03.737Z,83.54
2023-11-27T23:02:07.067Z,83.51
2023-11-27T23:04:10.626Z,83.51
2023-11-27T23:06:25.401Z,83.60
2023-11-27T23:08:36.218Z,83.61
2023-11-27T23:10:39.750Z,83.59
2023-11-27T23:12:43.290Z,83.58
2023-11-27T23:14:46.453Z,83.64
2023-11-27T23:16:49.717Z,83.65
2023-11-27T23:18:51.783Z,83.66
2023-11-27T23:20:59.454Z,83.76
2023-11-27T23:23:03.083Z,83.68
2023-11-27T23:25:07.325Z,83.71
2023-11-27T23:27:10.785Z,83.79
2023-11-27T23:29:16.357Z,83.81
2023-11-27T23:31:19.134Z,83.99
2023-11-27T23:33:22.122Z,83.85
2023-11-27T23:35:25.317Z,83.96
2023-11-27T23:37:29.667Z,83.75
2023-11-27T23:39:32.734Z,83.79
2023-11-27T23:41:35.759Z,83.69
2023-11-27T23:43:38.856Z,83.87
2023-11-27T23:45:41.870Z,83.70
2023-11-27T23:47:44.920Z,83.47
2023-11-27T23:49:47.948Z,83.50
2023-11-27T23:51:52.225Z,83.32
2023-11-27T23:53:56.719Z,83.47
2023-11-27T23:55:59.865Z,83.40
2023-11-27T23:58:02.922Z,83.22
